Location Isle ofWight, ISLE OF WIGHT, UK

ob UISISLE1 240900Z AUTO 19007G11KT OVC 15/15 A3011 RMK SLPNO 

2017.10.24 0900 UTC
Wind from the S (192 degrees) at 8.1 MPH (7 KT) gusting to 13.0 MPH (11 KT)
Visibility    Mile(s)
Sky Conditions  overcast
Temperature 59.8 F (15 C)
Dew Point 59.3 F (15 C)
Relative Humidity 98%
Pressure   30.112 in. Hg (1020 hPa)
Rain  0.00 in.
Daily Rain 0.000 in.

Station Name  Isle of Wight Weather
Longitude, Latitude  -1.271, 50.72
Elevation 45
Station URL http://www.isleofwightweather.co.uk
Software Type WeatherDisplay:10.37R